sensor_id;sensor_type;location;lat;lon;timestamp;pressure;altitude;pressure_sealevel;temperature;humidity
73516;BME280;61763;51.416;5.442;2023-08-07T00:00:17;101290.44;;;12.03;100.00
73516;BME280;61763;51.416;5.442;2023-08-07T00:02:42;101286.88;;;12.03;100.00
73516;BME280;61763;51.416;5.442;2023-08-07T00:05:07;101292.34;;;12.01;100.00
73516;BME280;61763;51.416;5.442;2023-08-07T00:07:33;101287.06;;;11.98;100.00
73516;BME280;61763;51.416;5.442;2023-08-07T00:09:59;101285.81;;;12.05;100.00
73516;BME280;61763;51.416;5.442;2023-08-07T00:12:26;101289.78;;;11.98;100.00
73516;BME280;61763;51.416;5.442;2023-08-07T00:14:51;101287.06;;;11.98;100.00
73516;BME280;61763;51.416;5.442;2023-08-07T00:17:17;101285.41;;;11.96;100.00
73516;BME280;61763;51.416;5.442;2023-08-07T00:19:42;101284.97;;;12.05;100.00
73516;BME280;61763;51.416;5.442;2023-08-07T00:22:08;101283.59;;;11.96;100.00
73516;BME280;61763;51.416;5.442;2023-08-07T00:24:34;101277.16;;;11.99;100.00
73516;BME280;61763;51.416;5.442;2023-08-07T00:27:00;101287.91;;;12.00;100.00
73516;BME280;61763;51.416;5.442;2023-08-07T00:29:26;101291.31;;;12.04;100.00
73516;BME280;61763;51.416;5.442;2023-08-07T00:31:51;101286.06;;;12.01;100.00
73516;BME280;61763;51.416;5.442;2023-08-07T00:34:17;101293.06;;;12.05;100.00
73516;BME280;61763;51.416;5.442;2023-08-07T00:36:42;101296.41;;;12.10;100.00
73516;BME280;61763;51.416;5.442;2023-08-07T00:39:07;101295.69;;;12.06;100.00
73516;BME280;61763;51.416;5.442;2023-08-07T00:41:34;101297.78;;;12.19;100.00
73516;BME280;61763;51.416;5.442;2023-08-07T00:43:59;101305.19;;;12.15;100.00
73516;BME280;61763;51.416;5.442;2023-08-07T00:46:26;101304.31;;;12.15;100.00
73516;BME280;61763;51.416;5.442;2023-08-07T00:48:52;101307.09;;;12.13;100.00
73516;BME280;61763;51.416;5.442;2023-08-07T00:51:19;101301.63;;;12.15;100.00
73516;BME280;61763;51.416;5.442;2023-08-07T00:53:45;101302.88;;;12.07;100.00
73516;BME280;61763;51.416;5.442;2023-08-07T00:56:11;101307.63;;;12.02;100.00
73516;BME280;61763;51.416;5.442;2023-08-07T00:58:36;101311.25;;;12.01;100.00
73516;BME280;61763;51.416;5.442;2023-08-07T01:01:03;101309.75;;;11.96;100.00
73516;BME280;61763;51.416;5.442;2023-08-07T01:03:29;101305.38;;;11.93;100.00
73516;BME280;61763;51.416;5.442;2023-08-07T01:05:54;101310.81;;;11.91;100.00
73516;BME280;61763;51.416;5.442;2023-08-07T01:08:20;101307.28;;;11.89;100.00
73516;BME280;61763;51.416;5.442;2023-08-07T01:11:14;101316.38;;;11.88;100.00
73516;BME280;61763;51.416;5.442;2023-08-07T01:13:59;101316.91;;;11.97;100.00
73516;BME280;61763;51.416;5.442;2023-08-07T01:16:34;101312.53;;;11.94;100.00
73516;BME280;61763;51.416;5.442;2023-08-07T01:19:01;101308.13;;;11.91;100.00
73516;BME280;61763;51.416;5.442;2023-08-07T01:21:28;101313.34;;;11.96;100.00
73516;BME280;61763;51.416;5.442;2023-08-07T01:23:53;101317.88;;;11.96;100.00
73516;BME280;61763;51.416;5.442;2023-08-07T01:26:20;101306.16;;;11.95;100.00
73516;BME280;61763;51.416;5.442;2023-08-07T01:28:52;101305.81;;;12.03;100.00
73516;BME280;61763;51.416;5.442;2023-08-07T01:31:20;101316.91;;;11.97;100.00
73516;BME280;61763;51.416;5.442;2023-08-07T01:33:54;101305.00;;;12.01;100.00
73516;BME280;61763;51.416;5.442;2023-08-07T01:36:23;101312.31;;;11.99;100.00
73516;BME280;61763;51.416;5.442;2023-08-07T01:38:50;101314.13;;;11.98;100.00
73516;BME280;61763;51.416;5.442;2023-08-07T01:41:18;101317.66;;;12.00;100.00
73516;BME280;61763;51.416;5.442;2023-08-07T01:43:44;101313.25;;;11.98;100.00
73516;BME280;61763;51.416;5.442;2023-08-07T01:46:10;101320.91;;;12.07;100.00
73516;BME280;61763;51.416;5.442;2023-08-07T01:48:36;101319.25;;;12.04;100.00
73516;BME280;61763;51.416;5.442;2023-08-07T01:51:02;101320.16;;;12.22;100.00
73516;BME280;61763;51.416;5.442;2023-08-07T01:53:27;101326.53;;;12.21;100.00
73516;BME280;61763;51.416;5.442;2023-08-07T01:55:53;101330.56;;;12.13;100.00
73516;BME280;61763;51.416;5.442;2023-08-07T01:58:19;101346.16;;;12.07;100.00
73516;BME280;61763;51.416;5.442;2023-08-07T02:00:45;101347.47;;;11.99;100.00
73516;BME280;61763;51.416;5.442;2023-08-07T02:03:10;101345.03;;;11.92;100.00
73516;BME280;61763;51.416;5.442;2023-08-07T02:05:35;101344.94;;;11.96;100.00
73516;BME280;61763;51.416;5.442;2023-08-07T02:08:01;101340.72;;;11.88;100.00
73516;BME280;61763;51.416;5.442;2023-08-07T02:10:26;101342.69;;;11.85;100.00
73516;BME280;61763;51.416;5.442;2023-08-07T02:12:51;101344.66;;;11.81;100.00
73516;BME280;61763;51.416;5.442;2023-08-07T02:15:17;101352.78;;;11.81;100.00
73516;BME280;61763;51.416;5.442;2023-08-07T02:17:42;101347.53;;;11.78;100.00
73516;BME280;61763;51.416;5.442;2023-08-07T02:20:08;101350.31;;;11.77;100.00
73516;BME280;61763;51.416;5.442;2023-08-07T02:22:34;101351.25;;;11.75;100.00
73516;BME280;61763;51.416;5.442;2023-08-07T02:24:59;101353.22;;;11.72;100.00
73516;BME280;61763;51.416;5.442;2023-08-07T02:27:25;101359.44;;;11.74;100.00
73516;BME280;61763;51.416;5.442;2023-08-07T02:29:50;101357.59;;;11.74;100.00
73516;BME280;61763;51.416;5.442;2023-08-07T02:32:19;101356.72;;;11.74;100.00
73516;BME280;61763;51.416;5.442;2023-08-07T02:34:45;101354.66;;;11.79;100.00
73516;BME280;61763;51.416;5.442;2023-08-07T02:37:11;101354.66;;;11.79;100.00
73516;BME280;61763;51.416;5.442;2023-08-07T02:39:36;101359.22;;;11.79;100.00
73516;BME280;61763;51.416;5.442;2023-08-07T02:42:02;101355.63;;;11.78;100.00
73516;BME280;61763;51.416;5.442;2023-08-07T02:44:29;101356.56;;;11.77;100.00
73516;BME280;61763;51.416;5.442;2023-08-07T02:46:54;101353.88;;;11.77;100.00
73516;BME280;61763;51.416;5.442;2023-08-07T02:49:20;101355.03;;;11.71;100.00
73516;BME280;61763;51.416;5.442;2023-08-07T02:51:45;101353.34;;;11.69;100.00
73516;BME280;61763;51.416;5.442;2023-08-07T02:54:11;101344.16;;;11.73;100.00
73516;BME280;61763;51.416;5.442;2023-08-07T02:56:36;101347.00;;;11.70;100.00
73516;BME280;61763;51.416;5.442;2023-08-07T02:59:01;101349.56;;;11.73;100.00
73516;BME280;61763;51.416;5.442;2023-08-07T03:01:27;101347.91;;;11.70;100.00
73516;BME280;61763;51.416;5.442;2023-08-07T03:03:53;101347.00;;;11.70;100.00
73516;BME280;61763;51.416;5.442;2023-08-07T03:06:18;101343.44;;;11.69;100.00
73516;BME280;61763;51.416;5.442;2023-08-07T03:08:43;101352.19;;;11.74;100.00
73516;BME280;61763;51.416;5.442;2023-08-07T03:11:09;101340.34;;;11.77;100.00
73516;BME280;61763;51.416;5.442;2023-08-07T03:13:34;101344.66;;;11.81;100.00
73516;BME280;61763;51.416;5.442;2023-08-07T03:16:01;101341.16;;;11.79;100.00
73516;BME280;61763;51.416;5.442;2023-08-07T03:18:27;101345.31;;;11.86;100.00
73516;BME280;61763;51.416;5.442;2023-08-07T03:20:53;101339.63;;;11.92;100.00
73516;BME280;61763;51.416;5.442;2023-08-07T03:23:19;101340.72;;;11.88;100.00
73516;BME280;61763;51.416;5.442;2023-08-07T03:25:44;101335.69;;;12.00;100.00
73516;BME280;61763;51.416;5.442;2023-08-07T03:28:09;101326.47;;;12.04;100.00
73516;BME280;61763;51.416;5.442;2023-08-07T03:30:35;101331.81;;;12.05;100.00
73516;BME280;61763;51.416;5.442;2023-08-07T03:33:00;101329.25;;;12.02;100.00
73516;BME280;61763;51.416;5.442;2023-08-07T03:35:27;101331.81;;;12.05;100.00
73516;BME280;61763;51.416;5.442;2023-08-07T03:37:52;101328.16;;;12.06;100.00
73516;BME280;61763;51.416;5.442;2023-08-07T03:40:18;101327.16;;;12.09;100.00
73516;BME280;61763;51.416;5.442;2023-08-07T03:42:44;101329.03;;;12.07;100.00
73516;BME280;61763;51.416;5.442;2023-08-07T03:45:09;101328.16;;;12.06;100.00
73516;BME280;61763;51.416;5.442;2023-08-07T03:47:35;101331.09;;;12.02;100.00
73516;BME280;61763;51.416;5.442;2023-08-07T03:50:00;101327.22;;;12.07;100.00
73516;BME280;61763;51.416;5.442;2023-08-07T03:52:25;101326.63;;;12.01;100.00
73516;BME280;61763;51.416;5.442;2023-08-07T03:54:51;101330.09;;;12.04;100.00
73516;BME280;61763;51.416;5.442;2023-08-07T03:57:16;101320.28;;;12.02;100.00
73516;BME280;61763;51.416;5.442;2023-08-07T03:59:41;101325.47;;;12.06;100.00
73516;BME280;61763;51.416;5.442;2023-08-07T04:02:07;101328.47;;;12.00;100.00
73516;BME280;61763;51.416;5.442;2023-08-07T04:04:32;101328.31;;;12.03;100.00
73516;BME280;61763;51.416;5.442;2023-08-07T04:06:58;101328.41;;;12.02;100.00
73516;BME280;61763;51.416;5.442;2023-08-07T04:09:23;101323.13;;;11.99;100.00
73516;BME280;61763;51.416;5.442;2023-08-07T04:11:48;101330.78;;;12.08;100.00
73516;BME280;61763;51.416;5.442;2023-08-07T04:14:14;101330.63;;;12.11;100.00
73516;BME280;61763;51.416;5.442;2023-08-07T04:16:39;101328.25;;;12.05;100.00
73516;BME280;61763;51.416;5.442;2023-08-07T04:19:04;101335.41;;;12.06;100.00
73516;BME280;61763;51.416;5.442;2023-08-07T04:21:31;101335.03;;;12.14;100.00
73516;BME280;61763;51.416;5.442;2023-08-07T04:23:57;101335.81;;;12.16;100.00
73516;BME280;61763;51.416;5.442;2023-08-07T04:26:22;101342.06;;;12.18;100.00
73516;BME280;61763;51.416;5.442;2023-08-07T04:28:48;101344.59;;;12.21;100.00
73516;BME280;61763;51.416;5.442;2023-08-07T04:31:13;101330.75;;;12.27;100.00
73516;BME280;61763;51.416;5.442;2023-08-07T04:33:39;101348.25;;;12.20;100.00
73516;BME280;61763;51.416;5.442;2023-08-07T04:36:04;101345.84;;;12.14;100.00
73516;BME280;61763;51.416;5.442;2023-08-07T04:38:30;101349.13;;;12.20;100.00
73516;BME280;61763;51.416;5.442;2023-08-07T04:40:55;101360.38;;;12.30;100.00
73516;BME280;61763;51.416;5.442;2023-08-07T04:43:21;101366.41;;;12.18;100.00
73516;BME280;61763;51.416;5.442;2023-08-07T04:45:46;101358.44;;;12.15;100.00
73516;BME280;61763;51.416;5.442;2023-08-07T04:48:12;101354.81;;;12.33;100.00
73516;BME280;61763;51.416;5.442;2023-08-07T04:50:38;101352.19;;;12.32;100.00
73516;BME280;61763;51.416;5.442;2023-08-07T04:53:06;101347.78;;;12.29;100.00
73516;BME280;61763;51.416;5.442;2023-08-07T04:55:33;101348.44;;;12.34;100.00
73516;BME280;61763;51.416;5.442;2023-08-07T04:57:58;101360.00;;;12.38;100.00
73516;BME280;61763;51.416;5.442;2023-08-07T05:00:25;101349.31;;;12.35;100.00
73516;BME280;61763;51.416;5.442;2023-08-07T05:02:51;101357.34;;;12.36;100.00
73516;BME280;61763;51.416;5.442;2023-08-07T05:05:16;101355.16;;;12.44;100.00
73516;BME280;61763;51.416;5.442;2023-08-07T05:07:51;101364.06;;;12.47;100.00
73516;BME280;61763;51.416;5.442;2023-08-07T05:10:18;101358.56;;;12.48;100.00
73516;BME280;61763;51.416;5.442;2023-08-07T05:12:43;101365.03;;;12.46;100.00
73516;BME280;61763;51.416;5.442;2023-08-07T05:15:09;101359.16;;;12.55;100.00
73516;BME280;61763;51.416;5.442;2023-08-07T05:17:34;101358.06;;;12.59;100.00
73516;BME280;61763;51.416;5.442;2023-08-07T05:20:00;101356.38;;;12.56;100.00
73516;BME280;61763;51.416;5.442;2023-08-07T05:22:29;101366.03;;;12.62;100.00
73516;BME280;61763;51.416;5.442;2023-08-07T05:24:55;101372.78;;;12.53;100.00
73516;BME280;61763;51.416;5.442;2023-08-07T05:27:20;101372.31;;;12.62;100.00
73516;BME280;61763;51.416;5.442;2023-08-07T05:29:45;101372.53;;;12.58;100.00
73516;BME280;61763;51.416;5.442;2023-08-07T05:32:12;101386.69;;;12.46;100.00
73516;BME280;61763;51.416;5.442;2023-08-07T05:34:40;101385.88;;;12.43;100.00
73516;BME280;61763;51.416;5.442;2023-08-07T05:37:06;101384.84;;;12.46;100.00
73516;BME280;61763;51.416;5.442;2023-08-07T05:39:32;101388.97;;;12.36;100.00
73516;BME280;61763;51.416;5.442;2023-08-07T05:41:57;101393.66;;;12.32;100.00
73516;BME280;61763;51.416;5.442;2023-08-07T05:44:26;101393.53;;;12.35;100.00
73516;BME280;61763;51.416;5.442;2023-08-07T05:46:51;101392.47;;;12.38;100.00
73516;BME280;61763;51.416;5.442;2023-08-07T05:49:16;101409.59;;;12.38;100.00
73516;BME280;61763;51.416;5.442;2023-08-07T05:51:42;101409.16;;;12.48;100.00
73516;BME280;61763;51.416;5.442;2023-08-07T05:54:08;101407.97;;;12.53;100.00
73516;BME280;61763;51.416;5.442;2023-08-07T05:56:33;101402.94;;;12.63;100.00
73516;BME280;61763;51.416;5.442;2023-08-07T05:58:59;101405.13;;;12.74;100.00
73516;BME280;61763;51.416;5.442;2023-08-07T06:01:24;101402.97;;;12.80;100.00
73516;BME280;61763;51.416;5.442;2023-08-07T06:03:55;101407.78;;;12.75;100.00
73516;BME280;61763;51.416;5.442;2023-08-07T06:06:21;101408.31;;;12.82;100.00
73516;BME280;61763;51.416;5.442;2023-08-07T06:08:46;101410.88;;;12.85;100.00
73516;BME280;61763;51.416;5.442;2023-08-07T06:11:13;101413.53;;;12.87;100.00
73516;BME280;61763;51.416;5.442;2023-08-07T06:13:40;101400.13;;;13.01;100.00
73516;BME280;61763;51.416;5.442;2023-08-07T06:16:07;101408.16;;;13.03;100.00
73516;BME280;61763;51.416;5.442;2023-08-07T06:18:32;101409.78;;;13.07;100.00
73516;BME280;61763;51.416;5.442;2023-08-07T06:20:59;101417.81;;;13.08;100.00
73516;BME280;61763;51.416;5.442;2023-08-07T06:23:25;101408.59;;;13.12;100.00
73516;BME280;61763;51.416;5.442;2023-08-07T06:25:50;101415.09;;;13.08;100.00
73516;BME280;61763;51.416;5.442;2023-08-07T06:28:16;101417.56;;;13.13;100.00
73516;BME280;61763;51.416;5.442;2023-08-07T06:30:41;101423.66;;;13.18;100.00
73516;BME280;61763;51.416;5.442;2023-08-07T06:33:06;101428.59;;;13.27;100.00
73516;BME280;61763;51.416;5.442;2023-08-07T06:35:37;101422.06;;;13.49;100.00
73516;BME280;61763;51.416;5.442;2023-08-07T06:38:03;101436.97;;;13.58;100.00
73516;BME280;61763;51.416;5.442;2023-08-07T06:40:28;101429.75;;;13.74;100.00
73516;BME280;61763;51.416;5.442;2023-08-07T06:42:54;101423.63;;;13.87;100.00
73516;BME280;61763;51.416;5.442;2023-08-07T06:45:19;101424.81;;;13.98;100.00
73516;BME280;61763;51.416;5.442;2023-08-07T06:47:45;101427.19;;;14.05;100.00
73516;BME280;61763;51.416;5.442;2023-08-07T06:50:13;101440.63;;;14.24;100.00
73516;BME280;61763;51.416;5.442;2023-08-07T06:52:39;101443.56;;;14.19;100.00
73516;BME280;61763;51.416;5.442;2023-08-07T06:55:04;101439.19;;;14.32;100.00
73516;BME280;61763;51.416;5.442;2023-08-07T06:57:30;101437.47;;;14.47;100.00
73516;BME280;61763;51.416;5.442;2023-08-07T06:59:55;101441.66;;;14.53;100.00
73516;BME280;61763;51.416;5.442;2023-08-07T07:02:20;101430.09;;;14.49;100.00
73516;BME280;61763;51.416;5.442;2023-08-07T07:04:46;101435.34;;;14.84;100.00
73516;BME280;61763;51.416;5.442;2023-08-07T07:07:11;101445.22;;;14.85;100.00
73516;BME280;61763;51.416;5.442;2023-08-07T07:09:36;101439.97;;;14.98;100.00
73516;BME280;61763;51.416;5.442;2023-08-07T07:12:02;101447.84;;;15.03;100.00
73516;BME280;61763;51.416;5.442;2023-08-07T07:14:28;101441.31;;;15.21;100.00
73516;BME280;61763;51.416;5.442;2023-08-07T07:16:53;101445.22;;;15.32;100.00
73516;BME280;61763;51.416;5.442;2023-08-07T07:19:19;101446.72;;;15.52;100.00
73516;BME280;61763;51.416;5.442;2023-08-07T07:21:44;101451.41;;;15.64;100.00
73516;BME280;61763;51.416;5.442;2023-08-07T07:24:09;101446.91;;;15.63;100.00
73516;BME280;61763;51.416;5.442;2023-08-07T07:26:35;101447.41;;;15.70;100.00
73516;BME280;61763;51.416;5.442;2023-08-07T07:29:00;101455.91;;;15.94;100.00
73516;BME280;61763;51.416;5.442;2023-08-07T07:31:26;101451.72;;;16.03;100.00
73516;BME280;61763;51.416;5.442;2023-08-07T07:33:51;101453.19;;;16.23;100.00
73516;BME280;61763;51.416;5.442;2023-08-07T07:36:17;101468.16;;;16.44;100.00
73516;BME280;61763;51.416;5.442;2023-08-07T07:38:45;101458.03;;;16.32;100.00
73516;BME280;61763;51.416;5.442;2023-08-07T07:41:10;101476.63;;;16.25;100.00
73516;BME280;61763;51.416;5.442;2023-08-07T07:43:37;101469.44;;;16.24;100.00
73516;BME280;61763;51.416;5.442;2023-08-07T07:46:03;101474.38;;;16.18;100.00
73516;BME280;61763;51.416;5.442;2023-08-07T07:48:28;101486.25;;;16.17;100.00
73516;BME280;61763;51.416;5.442;2023-08-07T07:51:00;101492.19;;;16.23;100.00
73516;BME280;61763;51.416;5.442;2023-08-07T07:53:26;101486.06;;;16.20;100.00
73516;BME280;61763;51.416;5.442;2023-08-07T07:55:52;101486.53;;;16.26;100.00
73516;BME280;61763;51.416;5.442;2023-08-07T07:58:17;101494.63;;;16.14;100.00
73516;BME280;61763;51.416;5.442;2023-08-07T08:00:43;101491.25;;;16.52;100.00
73516;BME280;61763;51.416;5.442;2023-08-07T08:03:08;101493.16;;;16.78;100.00
73516;BME280;61763;51.416;5.442;2023-08-07T08:05:34;101488.88;;;16.89;100.00
73516;BME280;61763;51.416;5.442;2023-08-07T08:08:00;101501.03;;;16.97;100.00
73516;BME280;61763;51.416;5.442;2023-08-07T08:10:27;101495.56;;;16.97;100.00
73516;BME280;61763;51.416;5.442;2023-08-07T08:12:54;101505.16;;;16.90;100.00
73516;BME280;61763;51.416;5.442;2023-08-07T08:15:19;101500.44;;;16.92;100.00
73516;BME280;61763;51.416;5.442;2023-08-07T08:17:44;101504.84;;;16.95;100.00
73516;BME280;61763;51.416;5.442;2023-08-07T08:20:10;101513.78;;;16.97;100.00
73516;BME280;61763;51.416;5.442;2023-08-07T08:22:35;101507.34;;;16.84;100.00
73516;BME280;61763;51.416;5.442;2023-08-07T08:25:01;101502.66;;;16.86;100.00
73516;BME280;61763;51.416;5.442;2023-08-07T08:27:26;101506.56;;;16.96;100.00
73516;BME280;61763;51.416;5.442;2023-08-07T08:29:52;101500.41;;;17.07;100.00
73516;BME280;61763;51.416;5.442;2023-08-07T08:32:17;101514.63;;;17.25;100.00
73516;BME280;61763;51.416;5.442;2023-08-07T08:34:42;101497.63;;;17.21;100.00
73516;BME280;61763;51.416;5.442;2023-08-07T08:37:08;101516.44;;;17.51;100.00
73516;BME280;61763;51.416;5.442;2023-08-07T08:39:35;101495.63;;;17.63;100.00
73516;BME280;61763;51.416;5.442;2023-08-07T08:42:00;101507.88;;;17.83;100.00
73516;BME280;61763;51.416;5.442;2023-08-07T08:44:29;101513.41;;;17.56;100.00
73516;BME280;61763;51.416;5.442;2023-08-07T08:46:56;101517.13;;;17.55;100.00
73516;BME280;61763;51.416;5.442;2023-08-07T08:49:29;101516.00;;;17.45;100.00
73516;BME280;61763;51.416;5.442;2023-08-07T08:51:56;101523.81;;;17.64;100.00
73516;BME280;61763;51.416;5.442;2023-08-07T08:54:22;101514.69;;;17.91;100.00
73516;BME280;61763;51.416;5.442;2023-08-07T08:56:47;101522.59;;;17.81;100.00
73516;BME280;61763;51.416;5.442;2023-08-07T08:59:13;101525.59;;;18.16;100.00
73516;BME280;61763;51.416;5.442;2023-08-07T09:01:39;101518.84;;;17.96;100.00
73516;BME280;61763;51.416;5.442;2023-08-07T09:04:04;101517.63;;;18.13;100.00
73516;BME280;61763;51.416;5.442;2023-08-07T09:06:31;101522.75;;;18.18;100.00
73516;BME280;61763;51.416;5.442;2023-08-07T09:08:58;101535.44;;;17.93;100.00
73516;BME280;61763;51.416;5.442;2023-08-07T09:11:24;101534.00;;;18.13;100.00
73516;BME280;61763;51.416;5.442;2023-08-07T09:13:50;101533.47;;;18.08;100.00
73516;BME280;61763;51.416;5.442;2023-08-07T09:16:16;101536.28;;;18.19;100.00
73516;BME280;61763;51.416;5.442;2023-08-07T09:18:42;101535.97;;;18.37;100.00
73516;BME280;61763;51.416;5.442;2023-08-07T09:21:08;101536.59;;;18.53;100.00
73516;BME280;61763;51.416;5.442;2023-08-07T09:23:34;101533.81;;;18.92;100.00
73516;BME280;61763;51.416;5.442;2023-08-07T09:26:01;101543.50;;;19.44;100.00
73516;BME280;61763;51.416;5.442;2023-08-07T09:28:28;101528.59;;;19.84;100.00
73516;BME280;61763;51.416;5.442;2023-08-07T09:30:54;101528.59;;;19.84;100.00
73516;BME280;61763;51.416;5.442;2023-08-07T09:33:26;101534.13;;;19.60;100.00
73516;BME280;61763;51.416;5.442;2023-08-07T09:35:52;101545.19;;;19.58;100.00
73516;BME280;61763;51.416;5.442;2023-08-07T09:38:18;101528.66;;;19.36;100.00
73516;BME280;61763;51.416;5.442;2023-08-07T09:40:43;101532.88;;;19.04;100.00
73516;BME280;61763;51.416;5.442;2023-08-07T09:43:08;101544.13;;;19.13;100.00
73516;BME280;61763;51.416;5.442;2023-08-07T09:45:35;101542.47;;;19.34;100.00
73516;BME280;61763;51.416;5.442;2023-08-07T09:48:03;101541.97;;;19.65;100.00
73516;BME280;61763;51.416;5.442;2023-08-07T09:50:30;101545.31;;;19.92;100.00
73516;BME280;61763;51.416;5.442;2023-08-07T09:52:56;101545.63;;;19.41;100.00
73516;BME280;61763;51.416;5.442;2023-08-07T09:55:23;101547.06;;;19.34;100.00
73516;BME280;61763;51.416;5.442;2023-08-07T09:57:49;101550.72;;;19.46;100.00
73516;BME280;61763;51.416;5.442;2023-08-07T10:00:15;101558.00;;;19.58;100.00
73516;BME280;61763;51.416;5.442;2023-08-07T10:02:42;101556.50;;;19.54;100.00
73516;BME280;61763;51.416;5.442;2023-08-07T10:05:12;101546.06;;;19.59;98.49
73516;BME280;61763;51.416;5.442;2023-08-07T10:07:38;101555.03;;;19.97;100.00
73516;BME280;61763;51.416;5.442;2023-08-07T10:10:04;101558.94;;;20.28;99.39
73516;BME280;61763;51.416;5.442;2023-08-07T10:12:31;101554.59;;;20.37;98.86
73516;BME280;61763;51.416;5.442;2023-08-07T10:14:58;101553.31;;;20.18;91.98
73516;BME280;61763;51.416;5.442;2023-08-07T10:17:24;101567.44;;;20.36;94.14
73516;BME280;61763;51.416;5.442;2023-08-07T10:19:51;101572.38;;;20.20;99.25
73516;BME280;61763;51.416;5.442;2023-08-07T10:22:18;101565.53;;;20.25;88.10
73516;BME280;61763;51.416;5.442;2023-08-07T10:24:47;101571.91;;;20.48;88.68
73516;BME280;61763;51.416;5.442;2023-08-07T10:27:17;101566.81;;;20.67;94.06
73516;BME280;61763;51.416;5.442;2023-08-07T10:29:46;101559.84;;;20.85;92.53
73516;BME280;61763;51.416;5.442;2023-08-07T10:32:14;101557.16;;;21.17;93.50
73516;BME280;61763;51.416;5.442;2023-08-07T10:34:42;101562.00;;;21.14;85.73
73516;BME280;61763;51.416;5.442;2023-08-07T10:40:04;101566.94;;;20.65;84.87
73516;BME280;61763;51.416;5.442;2023-08-07T10:45:20;101593.00;;;19.90;81.32
73516;BME280;61763;51.416;5.442;2023-08-07T10:48:11;101586.19;;;20.07;87.78
73516;BME280;61763;51.416;5.442;2023-08-07T10:55:53;101595.63;;;20.83;75.26
73516;BME280;61763;51.416;5.442;2023-08-07T10:58:26;101589.13;;;20.62;76.52
73516;BME280;61763;51.416;5.442;2023-08-07T11:03:54;101588.91;;;20.76;71.14
73516;BME280;61763;51.416;5.442;2023-08-07T11:06:30;101591.13;;;20.94;70.68
73516;BME280;61763;51.416;5.442;2023-08-07T11:09:00;101595.38;;;20.75;75.91
73516;BME280;61763;51.416;5.442;2023-08-07T11:11:29;101582.50;;;20.53;77.88
73516;BME280;61763;51.416;5.442;2023-08-07T11:13:55;101585.53;;;20.84;75.63
73516;BME280;61763;51.416;5.442;2023-08-07T11:16:20;101579.53;;;20.90;85.46
73516;BME280;61763;51.416;5.442;2023-08-07T11:18:47;101600.97;;;20.96;74.82
73516;BME280;61763;51.416;5.442;2023-08-07T11:21:13;101594.84;;;21.04;73.73
73516;BME280;61763;51.416;5.442;2023-08-07T11:23:39;101588.19;;;21.29;77.32
73516;BME280;61763;51.416;5.442;2023-08-07T11:26:05;101586.13;;;21.86;76.49
73516;BME280;61763;51.416;5.442;2023-08-07T11:28:34;101579.50;;;22.20;71.70
73516;BME280;61763;51.416;5.442;2023-08-07T11:31:01;101588.78;;;22.19;75.57
73516;BME280;61763;51.416;5.442;2023-08-07T11:33:27;101590.75;;;21.53;75.43
73516;BME280;61763;51.416;5.442;2023-08-07T11:35:54;101592.41;;;21.33;77.32
73516;BME280;61763;51.416;5.442;2023-08-07T11:38:38;101586.25;;;22.06;79.18
73516;BME280;61763;51.416;5.442;2023-08-07T11:41:05;101595.28;;;22.39;78.21
73516;BME280;61763;51.416;5.442;2023-08-07T11:43:34;101585.03;;;22.72;79.23
73516;BME280;61763;51.416;5.442;2023-08-07T11:46:04;101582.25;;;22.62;75.83
73516;BME280;61763;51.416;5.442;2023-08-07T11:48:32;101593.53;;;22.59;70.75
73516;BME280;61763;51.416;5.442;2023-08-07T11:50:58;101589.53;;;22.00;70.60
73516;BME280;61763;51.416;5.442;2023-08-07T11:53:26;101584.50;;;22.26;72.50
73516;BME280;61763;51.416;5.442;2023-08-07T11:55:53;101582.19;;;21.89;78.72
73516;BME280;61763;51.416;5.442;2023-08-07T11:58:21;101584.13;;;21.77;80.60
73516;BME280;61763;51.416;5.442;2023-08-07T12:00:48;101581.88;;;21.50;78.84
73516;BME280;61763;51.416;5.442;2023-08-07T12:03:29;101594.47;;;20.97;86.92
73516;BME280;61763;51.416;5.442;2023-08-07T12:05:58;101591.72;;;20.52;87.38
73516;BME280;61763;51.416;5.442;2023-08-07T12:08:25;101600.81;;;20.41;91.50
73516;BME280;61763;51.416;5.442;2023-08-07T12:10:56;101605.50;;;20.05;96.09
73516;BME280;61763;51.416;5.442;2023-08-07T12:13:25;101613.44;;;19.97;100.00
73516;BME280;61763;51.416;5.442;2023-08-07T12:15:56;101610.72;;;19.73;100.00
73516;BME280;61763;51.416;5.442;2023-08-07T12:18:23;101611.34;;;19.76;100.00
73516;BME280;61763;51.416;5.442;2023-08-07T12:20:56;101621.38;;;19.65;100.00
73516;BME280;61763;51.416;5.442;2023-08-07T12:23:23;101623.13;;;19.41;100.00
73516;BME280;61763;51.416;5.442;2023-08-07T12:25:48;101624.69;;;18.96;100.00
73516;BME280;61763;51.416;5.442;2023-08-07T12:28:15;101627.03;;;18.89;100.00
73516;BME280;61763;51.416;5.442;2023-08-07T12:30:44;101617.91;;;19.01;100.00
73516;BME280;61763;51.416;5.442;2023-08-07T12:33:09;101622.00;;;19.20;100.00
73516;BME280;61763;51.416;5.442;2023-08-07T12:35:35;101607.28;;;19.82;100.00
73516;BME280;61763;51.416;5.442;2023-08-07T12:38:00;101605.94;;;20.35;100.00
73516;BME280;61763;51.416;5.442;2023-08-07T12:40:27;101600.69;;;20.65;100.00
73516;BME280;61763;51.416;5.442;2023-08-07T12:42:53;101604.28;;;21.23;100.00
73516;BME280;61763;51.416;5.442;2023-08-07T12:45:18;101596.44;;;21.73;100.00
73516;BME280;61763;51.416;5.442;2023-08-07T12:47:45;101592.59;;;21.85;95.74
73516;BME280;61763;51.416;5.442;2023-08-07T12:50:11;101590.94;;;21.73;91.23